Gunner — WDG9803 — position and weather

sailwx.info

Track history (hours):
 
Tides and Currents Weather Stations Pressure Air Temp Water Temp Dewpoint Dewpoint Depression Visibility Wind Speed Wind Dir Waves Ship Positions

Gunner

Owner: M/V Gunner, LLC, Broussard, LA. More information available from US FCC via Universal Licensing System and Coast Guard Vessel Documentation Center.

Last reported at 2017-Dec-11 13:07 UTC. Time now 2017-Dec-17 15:48 UTC.
Position N 29°38' W 090°20'.

Length 22 m; draft 3 m.

Type: Towing. MMSI: 367591260.

Date/timePositionNaut miles runAvg speedWind from/ knotsBaromVisibWave heightAir tempDewpointWater temp
2017-Dec-11 13:07N 29°38' W 090°20'1 6.0
2017-Dec-11 13:00N 29°38' W 090°20'3 5.5
2017-Dec-11 12:29N 29°35' W 090°22'3 5.1
2017-Dec-11 11:58N 29°33' W 090°24'1 3.0
2017-Dec-11 11:29N 29°33' W 090°25'0 0.0
2017-Dec-11 11:00N 29°33' W 090°25'0 0.0
2017-Dec-11 10:30N 29°33' W 090°25'1 0.6
2017-Dec-11 08:33N 29°33' W 090°27'0 3.3
2017-Dec-11 08:27N 29°33' W 090°27'2 3.7
2017-Dec-11 08:00N 29°34' W 090°29'2 3.7
2017-Dec-11 07:30N 29°34' W 090°31'2 3.6
2017-Dec-11 07:00N 29°34' W 090°33'2 3.3
2017-Dec-11 06:30N 29°34' W 090°35'0 0.6
2017-Dec-11 06:00N 29°35' W 090°35'0 0.2
2017-Dec-11 05:30N 29°35' W 090°35'2 4.9
2017-Dec-11 05:00N 29°35' W 090°38'2 4.0
2017-Dec-11 04:30N 29°36' W 090°40'0 0.0
2017-Dec-11 04:00N 29°36' W 090°40'0 0.0
2017-Dec-11 03:30N 29°36' W 090°40'0 0.0
2017-Dec-11 03:00N 29°36' W 090°40'0 0.0
2017-Dec-11 02:30N 29°36' W 090°40'0 0.0
2017-Dec-11 02:00N 29°36' W 090°40'0 0.0
2017-Dec-11 01:30N 29°36' W 090°40'0 0.0
2017-Dec-11 01:00N 29°36' W 090°40'0 0.0
2017-Dec-11 00:30N 29°36' W 090°40'0 0.0
2017-Dec-11 00:00N 29°36' W 090°40'0 0.0
2017-Dec-10 23:30N 29°36' W 090°40'1 1.7
2017-Dec-10 22:58N 29°36' W 090°39'2 4.2
2017-Dec-10 22:27N 29°35' W 090°37'1 1.5
2017-Dec-10 21:33N 29°35' W 090°35'0 1.7
2017-Dec-10 21:15N 29°35' W 090°36'1 5.5
2017-Dec-10 20:59N 29°35' W 090°37'3 5.2
2017-Dec-10 20:30N 29°36' W 090°40'0 0.0
2017-Dec-10 19:59N 29°36' W 090°40'0 0.0
2017-Dec-10 19:27N 29°36' W 090°40'0 0.0
2017-Dec-10 18:52N 29°36' W 090°40'0 0.0
2017-Dec-10 18:30N 29°36' W 090°40'0 0.0
2017-Dec-10 18:00N 29°36' W 090°40'0 0.0
2017-Dec-10 17:30N 29°36' W 090°40'0 0.0
2017-Dec-10 17:00N 29°36' W 090°40'0 0.0
2017-Dec-10 16:30N 29°36' W 090°40'0 0.0
2017-Dec-10 16:00N 29°36' W 090°40'0 0.0
2017-Dec-10 15:30N 29°36' W 090°40'0 0.0
2017-Dec-10 15:00N 29°36' W 090°40'0 0.0
2017-Dec-10 14:30N 29°36' W 090°40'0 0.0
2017-Dec-10 14:00N 29°36' W 090°40'0 0.0
2017-Dec-10 13:30N 29°36' W 090°40'0 0.0
2017-Dec-10 13:00N 29°36' W 090°40'0 0.0
2017-Dec-10 12:30N 29°36' W 090°40'0 0.0
2017-Dec-10 12:00N 29°36' W 090°40'0 0.0
2017-Dec-10 11:30N 29°36' W 090°40'0 0.0
2017-Dec-10 11:00N 29°36' W 090°40'0 0.0
2017-Dec-10 10:30N 29°36' W 090°40'0 0.0
2017-Dec-10 10:00N 29°36' W 090°40'0 0.0
2017-Dec-10 09:30N 29°36' W 090°40'0 0.0
2017-Dec-10 09:00N 29°36' W 090°40'0 0.0
2017-Dec-10 08:30N 29°36' W 090°40'0 0.0
2017-Dec-10 08:00N 29°36' W 090°40'0 0.0
2017-Dec-10 07:30N 29°36' W 090°40'0 0.0
2017-Dec-10 07:00N 29°36' W 090°40'0 0.0
2017-Dec-10 06:30N 29°36' W 090°40'0 0.0
2017-Dec-10 06:00N 29°36' W 090°40'0 0.0
2017-Dec-10 05:30N 29°36' W 090°40'0 0.0
2017-Dec-10 05:00N 29°36' W 090°40'0 0.0
2017-Dec-10 04:30N 29°36' W 090°40'0 0.0
2017-Dec-10 04:00N 29°36' W 090°40'0 0.0
2017-Dec-10 03:30N 29°36' W 090°40'0 0.0
2017-Dec-10 03:00N 29°36' W 090°40'0 0.0
2017-Dec-10 02:30N 29°36' W 090°40'0 0.0
2017-Dec-10 02:00N 29°36' W 090°40'0 0.0
2017-Dec-10 01:30N 29°36' W 090°40'0 0.0
2017-Dec-10 01:00N 29°36' W 090°40'0 0.0
2017-Dec-10 00:30N 29°36' W 090°40'0 0.0
2017-Dec-10 00:00N 29°36' W 090°40'0 0.0
2017-Dec-09 23:30N 29°36' W 090°40'0 0.0
2017-Dec-09 23:00N 29°36' W 090°40'0 0.0
2017-Dec-09 22:30N 29°36' W 090°40'0 0.0
2017-Dec-09 22:00N 29°36' W 090°40'0 0.0
2017-Dec-09 21:30N 29°36' W 090°40'0 0.0
2017-Dec-09 21:00N 29°36' W 090°40'0 0.0
2017-Dec-09 20:30N 29°36' W 090°40'1 1.4
2017-Dec-09 20:00N 29°36' W 090°39'3 5.4
2017-Dec-09 19:30N 29°35' W 090°36'1 1.8
2017-Dec-09 18:57N 29°35' W 090°35'0 0.1
2017-Dec-09 18:25N 29°35' W 090°35'0 0.0
2017-Dec-09 18:00N 29°35' W 090°35'0 0.2
2017-Dec-09 17:30N 29°35' W 090°35'0 0.0
2017-Dec-09 17:00N 29°35' W 090°35'1 1.2
2017-Dec-09 16:30N 29°35' W 090°36'2 3.3
2017-Dec-09 16:00N 29°35' W 090°38'2 4.3
2017-Dec-09 15:30N 29°36' W 090°40'2 4.3
2017-Dec-09 15:00N 29°37' W 090°42'2 4.6
2017-Dec-09 14:30N 29°35' W 090°43'2 4.0
2017-Dec-09 14:00N 29°34' W 090°45'2 4.7
2017-Dec-09 13:30N 29°32' W 090°47'3 5.5
2017-Dec-09 13:00N 29°32' W 090°50'3 5.3
2017-Dec-09 12:28N 29°33' W 090°54'3 5.5
2017-Dec-09 12:00N 29°34' W 090°56'55 4.1
2017-Dec-08 22:37N 29°51' W 091°56'1 4.9
2017-Dec-08 22:26N 29°50' W 091°57'2 5.3
2017-Dec-08 22:00N 29°50' W 091°60'2 3.5
2017-Dec-08 21:30N 29°49' W 092°02'3 5.8
2017-Dec-08 21:00N 29°48' W 092°05'3 5.6
2017-Dec-08 20:30N 29°47' W 092°08'3 5.9
2017-Dec-08 20:00N 29°47' W 092°11'2 3.9
2017-Dec-08 19:30N 29°48' W 092°13'0 0.0
2017-Dec-08 19:00N 29°48' W 092°13'0 0.0
2017-Dec-08 18:30N 29°48' W 092°13'0 0.0
2017-Dec-08 18:00N 29°48' W 092°13'0 0.0
2017-Dec-08 17:30N 29°48' W 092°13'0 0.0
2017-Dec-08 17:00N 29°48' W 092°13'0 0.0
2017-Dec-08 16:30N 29°48' W 092°13'0 0.0
2017-Dec-08 16:00N 29°48' W 092°13'0 0.0
2017-Dec-08 15:30N 29°48' W 092°13'0 0.0
2017-Dec-08 15:00N 29°48' W 092°13'0 0.0
2017-Dec-08 14:30N 29°48' W 092°13'0 0.0
2017-Dec-08 14:00N 29°48' W 092°13'0 0.0
2017-Dec-08 13:30N 29°48' W 092°13'0 0.0
2017-Dec-08 13:00N 29°48' W 092°13'0 0.0
2017-Dec-08 12:30N 29°48' W 092°13'0 0.0
2017-Dec-08 12:00N 29°48' W 092°13'0 0.0
2017-Dec-08 11:30N 29°48' W 092°13'0 0.0
2017-Dec-08 11:00N 29°48' W 092°13'0 0.0
2017-Dec-08 10:30N 29°48' W 092°13'0 0.0
2017-Dec-08 10:00N 29°48' W 092°13'0 0.0
2017-Dec-08 09:30N 29°48' W 092°13'0 0.0
2017-Dec-08 09:00N 29°48' W 092°13'0 0.0
2017-Dec-08 08:30N 29°48' W 092°13'0 0.0
2017-Dec-08 08:00N 29°48' W 092°13'0 0.0
2017-Dec-08 07:30N 29°48' W 092°13'2 4.2
2017-Dec-08 07:00N 29°48' W 092°16'1 1.8
2017-Dec-08 06:30N 29°49' W 092°17'2 4.9
2017-Dec-08 06:00N 29°50' W 092°19'37 3.8
2017-Dec-07 20:10N 29°56' W 093°01'1 5.1
2017-Dec-07 20:00N 29°56' W 093°02'3 5.7
2017-Dec-07 19:30N 29°56' W 093°06'3 5.7
2017-Dec-07 19:00N 29°56' W 093°09'3 5.6
2017-Dec-07 18:30N 29°58' W 093°11'2 4.9
2017-Dec-07 18:00N 29°60' W 093°13'2 4.6
2017-Dec-07 17:30N 30°02' W 093°15'2 4.2
2017-Dec-07 17:00N 30°04' W 093°16'2 4.8
2017-Dec-07 16:30N 30°05' W 093°18'1 2.0
2017-Dec-07 16:00N 30°06' W 093°18'0 0.1
2017-Dec-07 15:30N 30°06' W 093°18'0 0.0
2017-Dec-07 15:00N 30°06' W 093°18'1 1.1
2017-Dec-07 14:30N 30°06' W 093°19'2 3.1
2017-Dec-07 14:00N 30°07' W 093°20'3 6.3
2017-Dec-07 13:30N 30°10' W 093°19'4 7.2
2017-Dec-07 13:00N 30°12' W 093°16'1 0.9
2017-Dec-07 12:28N 30°13' W 093°16'0 0.0
2017-Dec-07 11:51N 30°13' W 093°16'0 0.0
2017-Dec-07 10:46N 30°13' W 093°16'0 0.0
2017-Dec-07 10:30N 30°13' W 093°16'0 0.0
2017-Dec-07 10:00N 30°13' W 093°16'0 0.0
2017-Dec-07 09:30N 30°13' W 093°16'0 0.0
2017-Dec-07 09:00N 30°13' W 093°16'0 0.0
2017-Dec-07 08:30N 30°13' W 093°16'0 0.0
2017-Dec-07 08:00N 30°13' W 093°16'0 0.0
2017-Dec-07 07:30N 30°13' W 093°16'0 0.0
2017-Dec-07 06:57N 30°13' W 093°16'0 0.0
2017-Dec-07 06:30N 30°13' W 093°16'0 0.0
2017-Dec-07 06:00N 30°13' W 093°16'0 0.0
2017-Dec-07 05:30N 30°13' W 093°16'0 0.0
2017-Dec-07 05:00N 30°13' W 093°16'0 0.0
2017-Dec-07 04:30N 30°13' W 093°16'0 0.0
2017-Dec-07 04:00N 30°13' W 093°16'0 0.0
2017-Dec-07 03:29N 30°13' W 093°16'0 0.0
2017-Dec-07 03:00N 30°13' W 093°16'0 0.0
2017-Dec-07 02:30N 30°13' W 093°16'0 0.0
2017-Dec-07 02:00N 30°13' W 093°16'0 0.0
2017-Dec-06 23:10N 30°13' W 093°16'0 0.0
2017-Dec-06 23:00N 30°13' W 093°16'0 0.0
2017-Dec-06 22:30N 30°13' W 093°16'0 0.0
2017-Dec-06 22:00N 30°13' W 093°16'0 0.0
2017-Dec-06 21:30N 30°13' W 093°16'0 0.1
2017-Dec-06 21:00N 30°13' W 093°16'  
2017-Dec-04 10:30N 30°12' W 093°19'0 0.0
2017-Dec-04 10:00N 30°12' W 093°19'0 0.0
2017-Dec-04 09:30N 30°12' W 093°19'0 0.0
2017-Dec-04 09:00N 30°12' W 093°19'0 0.0
2017-Dec-04 08:30N 30°12' W 093°19'0 0.0
2017-Dec-04 08:00N 30°12' W 093°19'0 0.0
2017-Dec-04 07:30N 30°12' W 093°19'0 0.0
2017-Dec-04 07:00N 30°12' W 093°19'0 0.0
2017-Dec-04 06:30N 30°12' W 093°19'0 0.0
2017-Dec-04 06:00N 30°12' W 093°19'0 0.0
2017-Dec-04 05:30N 30°12' W 093°19'0 0.0
2017-Dec-04 05:00N 30°12' W 093°19'0 0.0
2017-Dec-04 04:30N 30°12' W 093°19'0 0.0
2017-Dec-04 04:00N 30°12' W 093°19'0 0.0
2017-Dec-04 03:30N 30°12' W 093°19'0 0.0
2017-Dec-04 03:00N 30°12' W 093°19'0 0.0
2017-Dec-04 02:30N 30°12' W 093°19'1 1.2
2017-Dec-04 02:00N 30°13' W 093°19'2 3.3
2017-Dec-04 01:30N 30°12' W 093°17'2 3.8
2017-Dec-04 00:59N 30°13' W 093°15'2 4.7
2017-Dec-04 00:30N 30°12' W 093°17'2 3.2
2017-Dec-03 23:59N 30°12' W 093°19'1 1.4
2017-Dec-03 23:27N 30°12' W 093°18'2 4.5
2017-Dec-03 22:56N 30°13' W 093°16'0 0.8
2017-Dec-03 22:30N 30°13' W 093°16'2 4.4
2017-Dec-03 22:00N 30°12' W 093°18'1 2.2
2017-Dec-03 21:30N 30°12' W 093°19'1 1.2
2017-Dec-03 21:00N 30°13' W 093°19'1 1.8
2017-Dec-03 20:30N 30°12' W 093°18'2 3.7
2017-Dec-03 20:00N 30°13' W 093°16'1 1.5
2017-Dec-03 19:30N 30°13' W 093°15'2 4.6
2017-Dec-03 19:00N 30°12' W 093°17'1 2.9
2017-Dec-03 18:30N 30°13' W 093°19'1 1.0
2017-Dec-03 18:00N 30°12' W 093°19'0 0.0
2017-Dec-03 17:30N 30°12' W 093°19'0 0.5
2017-Dec-03 17:00N 30°12' W 093°19'0 0.0
2017-Dec-03 16:30N 30°12' W 093°19'1 2.0
2017-Dec-03 16:00N 30°12' W 093°18'2 4.3
2017-Dec-03 15:30N 30°13' W 093°16'0 0.1
2017-Dec-03 08:41N 30°13' W 093°15'1 4.0
2017-Dec-03 08:30N 30°13' W 093°16'2 4.5
2017-Dec-03 08:00N 30°13' W 093°18'1 1.7
2017-Dec-03 07:30N 30°12' W 093°19'1 1.9
2017-Dec-03 06:50N 30°12' W 093°18'1 2.5
2017-Dec-03 06:30N 30°12' W 093°17'2 3.2
2017-Dec-03 05:55N 30°13' W 093°15'0 0.1
2017-Dec-03 05:30N 30°13' W 093°15'0 0.7
2017-Dec-03 04:55N 30°13' W 093°16'0 0.0
2017-Dec-03 04:17N 30°13' W 093°16'1 1.5
2017-Dec-03 03:55N 30°13' W 093°16'1 3.4
2017-Dec-03 03:30N 30°12' W 093°17'3 4.4
2017-Dec-03 02:55N 30°10' W 093°19'2 3.9
2017-Dec-03 02:26N 30°08' W 093°20'2 4.6
2017-Dec-03 02:00N 30°07' W 093°20'1 2.6
2017-Dec-03 01:30N 30°06' W 093°19'1 2.3
2017-Dec-03 01:00N 30°05' W 093°18'0 0.8
2017-Dec-03 00:30N 30°05' W 093°17'2 3.4
2017-Dec-03 00:00N 30°04' W 093°16'2 3.1
2017-Dec-02 23:30N 30°02' W 093°15'2 3.2
2017-Dec-02 23:00N 30°01' W 093°14'2 3.1
2017-Dec-02 22:30N 29°60' W 093°13'2 3.4
2017-Dec-02 22:00N 29°59' W 093°12'2 3.7
2017-Dec-02 21:30N 29°57' W 093°11'2 3.4
2017-Dec-02 20:57N 29°56' W 093°09'39 2.5
2017-Dec-02 05:23N 29°53' W 092°24'3 2.9
2017-Dec-02 04:26N 29°51' W 092°22'1 3.1
2017-Dec-02 04:00N 29°51' W 092°20'2 3.5
2017-Dec-02 03:30N 29°50' W 092°18'1 2.6
2017-Dec-02 03:00N 29°49' W 092°17'2 3.2
2017-Dec-02 02:30N 29°48' W 092°16'1 3.0
2017-Dec-02 02:00N 29°48' W 092°14'1 2.8
2017-Dec-02 01:30N 29°47' W 092°13'1 1.2
2017-Dec-02 01:00N 29°47' W 092°12'1 1.1
2017-Dec-02 00:30N 29°47' W 092°12'1 2.5
2017-Dec-02 00:00N 29°47' W 092°10'2 3.6
2017-Dec-01 23:30N 29°47' W 092°08'2 3.7
2017-Dec-01 23:00N 29°48' W 092°06'2 3.5
2017-Dec-01 22:30N 29°48' W 092°04'2 3.7
2017-Dec-01 22:00N 29°49' W 092°02'2 4.1
2017-Dec-01 21:30N 29°50' W 092°00'  
Track history (hours):
 
Tides and Currents Weather Stations Pressure Air Temp Water Temp Dewpoint Dewpoint Depression Visibility Wind Speed Wind Dir Waves Ship Positions

Gunner

Owner: M/V Gunner, LLC, Broussard, LA. More information available from US FCC via Universal Licensing System and Coast Guard Vessel Documentation Center.

Last reported at 2017-Dec-11 13:07 UTC. Time now 2017-Dec-17 15:48 UTC.
Position N 29°38' W 090°20'.

Length 22 m; draft 3 m.

Type: Towing. MMSI: 367591260.

Date/timePositionNaut miles runAvg speedWind from/ knotsBaromVisibWave heightAir tempDewpointWater temp
2017-Dec-11 13:07N 29°38' W 090°20'1 6.0
2017-Dec-11 13:00N 29°38' W 090°20'3 5.5
2017-Dec-11 12:29N 29°35' W 090°22'3 5.1
2017-Dec-11 11:58N 29°33' W 090°24'1 3.0
2017-Dec-11 11:29N 29°33' W 090°25'0 0.0
2017-Dec-11 11:00N 29°33' W 090°25'0 0.0
2017-Dec-11 10:30N 29°33' W 090°25'1 0.6
2017-Dec-11 08:33N 29°33' W 090°27'0 3.3
2017-Dec-11 08:27N 29°33' W 090°27'2 3.7
2017-Dec-11 08:00N 29°34' W 090°29'2 3.7
2017-Dec-11 07:30N 29°34' W 090°31'2 3.6
2017-Dec-11 07:00N 29°34' W 090°33'2 3.3
2017-Dec-11 06:30N 29°34' W 090°35'0 0.6
2017-Dec-11 06:00N 29°35' W 090°35'0 0.2
2017-Dec-11 05:30N 29°35' W 090°35'2 4.9
2017-Dec-11 05:00N 29°35' W 090°38'2 4.0
2017-Dec-11 04:30N 29°36' W 090°40'0 0.0
2017-Dec-11 04:00N 29°36' W 090°40'0 0.0
2017-Dec-11 03:30N 29°36' W 090°40'0 0.0
2017-Dec-11 03:00N 29°36' W 090°40'0 0.0
2017-Dec-11 02:30N 29°36' W 090°40'0 0.0
2017-Dec-11 02:00N 29°36' W 090°40'0 0.0
2017-Dec-11 01:30N 29°36' W 090°40'0 0.0
2017-Dec-11 01:00N 29°36' W 090°40'0 0.0
2017-Dec-11 00:30N 29°36' W 090°40'0 0.0
2017-Dec-11 00:00N 29°36' W 090°40'0 0.0
2017-Dec-10 23:30N 29°36' W 090°40'1 1.7
2017-Dec-10 22:58N 29°36' W 090°39'2 4.2
2017-Dec-10 22:27N 29°35' W 090°37'1 1.5
2017-Dec-10 21:33N 29°35' W 090°35'0 1.7
2017-Dec-10 21:15N 29°35' W 090°36'1 5.5
2017-Dec-10 20:59N 29°35' W 090°37'3 5.2
2017-Dec-10 20:30N 29°36' W 090°40'0 0.0
2017-Dec-10 19:59N 29°36' W 090°40'0 0.0
2017-Dec-10 19:27N 29°36' W 090°40'0 0.0
2017-Dec-10 18:52N 29°36' W 090°40'0 0.0
2017-Dec-10 18:30N 29°36' W 090°40'0 0.0
2017-Dec-10 18:00N 29°36' W 090°40'0 0.0
2017-Dec-10 17:30N 29°36' W 090°40'0 0.0
2017-Dec-10 17:00N 29°36' W 090°40'0 0.0
2017-Dec-10 16:30N 29°36' W 090°40'0 0.0
2017-Dec-10 16:00N 29°36' W 090°40'0 0.0
2017-Dec-10 15:30N 29°36' W 090°40'0 0.0
2017-Dec-10 15:00N 29°36' W 090°40'0 0.0
2017-Dec-10 14:30N 29°36' W 090°40'0 0.0
2017-Dec-10 14:00N 29°36' W 090°40'0 0.0
2017-Dec-10 13:30N 29°36' W 090°40'0 0.0
2017-Dec-10 13:00N 29°36' W 090°40'0 0.0
2017-Dec-10 12:30N 29°36' W 090°40'0 0.0
2017-Dec-10 12:00N 29°36' W 090°40'0 0.0
2017-Dec-10 11:30N 29°36' W 090°40'0 0.0
2017-Dec-10 11:00N 29°36' W 090°40'0 0.0
2017-Dec-10 10:30N 29°36' W 090°40'0 0.0
2017-Dec-10 10:00N 29°36' W 090°40'0 0.0
2017-Dec-10 09:30N 29°36' W 090°40'0 0.0
2017-Dec-10 09:00N 29°36' W 090°40'0 0.0
2017-Dec-10 08:30N 29°36' W 090°40'0 0.0
2017-Dec-10 08:00N 29°36' W 090°40'0 0.0
2017-Dec-10 07:30N 29°36' W 090°40'0 0.0
2017-Dec-10 07:00N 29°36' W 090°40'0 0.0
2017-Dec-10 06:30N 29°36' W 090°40'0 0.0
2017-Dec-10 06:00N 29°36' W 090°40'0 0.0
2017-Dec-10 05:30N 29°36' W 090°40'0 0.0
2017-Dec-10 05:00N 29°36' W 090°40'0 0.0
2017-Dec-10 04:30N 29°36' W 090°40'0 0.0
2017-Dec-10 04:00N 29°36' W 090°40'0 0.0
2017-Dec-10 03:30N 29°36' W 090°40'0 0.0
2017-Dec-10 03:00N 29°36' W 090°40'0 0.0
2017-Dec-10 02:30N 29°36' W 090°40'0 0.0
2017-Dec-10 02:00N 29°36' W 090°40'0 0.0
2017-Dec-10 01:30N 29°36' W 090°40'0 0.0
2017-Dec-10 01:00N 29°36' W 090°40'0 0.0
2017-Dec-10 00:30N 29°36' W 090°40'0 0.0
2017-Dec-10 00:00N 29°36' W 090°40'0 0.0
2017-Dec-09 23:30N 29°36' W 090°40'0 0.0
2017-Dec-09 23:00N 29°36' W 090°40'0 0.0
2017-Dec-09 22:30N 29°36' W 090°40'0 0.0
2017-Dec-09 22:00N 29°36' W 090°40'0 0.0
2017-Dec-09 21:30N 29°36' W 090°40'0 0.0
2017-Dec-09 21:00N 29°36' W 090°40'0 0.0
2017-Dec-09 20:30N 29°36' W 090°40'1 1.4
2017-Dec-09 20:00N 29°36' W 090°39'3 5.4
2017-Dec-09 19:30N 29°35' W 090°36'1 1.8
2017-Dec-09 18:57N 29°35' W 090°35'0 0.1
2017-Dec-09 18:25N 29°35' W 090°35'0 0.0
2017-Dec-09 18:00N 29°35' W 090°35'0 0.2
2017-Dec-09 17:30N 29°35' W 090°35'0 0.0
2017-Dec-09 17:00N 29°35' W 090°35'1 1.2
2017-Dec-09 16:30N 29°35' W 090°36'2 3.3
2017-Dec-09 16:00N 29°35' W 090°38'2 4.3
2017-Dec-09 15:30N 29°36' W 090°40'2 4.3
2017-Dec-09 15:00N 29°37' W 090°42'2 4.6
2017-Dec-09 14:30N 29°35' W 090°43'2 4.0
2017-Dec-09 14:00N 29°34' W 090°45'2 4.7
2017-Dec-09 13:30N 29°32' W 090°47'3 5.5
2017-Dec-09 13:00N 29°32' W 090°50'3 5.3
2017-Dec-09 12:28N 29°33' W 090°54'3 5.5
2017-Dec-09 12:00N 29°34' W 090°56'55 4.1
2017-Dec-08 22:37N 29°51' W 091°56'1 4.9
2017-Dec-08 22:26N 29°50' W 091°57'2 5.3
2017-Dec-08 22:00N 29°50' W 091°60'2 3.5
2017-Dec-08 21:30N 29°49' W 092°02'3 5.8
2017-Dec-08 21:00N 29°48' W 092°05'3 5.6
2017-Dec-08 20:30N 29°47' W 092°08'3 5.9
2017-Dec-08 20:00N 29°47' W 092°11'2 3.9
2017-Dec-08 19:30N 29°48' W 092°13'0 0.0
2017-Dec-08 19:00N 29°48' W 092°13'0 0.0
2017-Dec-08 18:30N 29°48' W 092°13'0 0.0
2017-Dec-08 18:00N 29°48' W 092°13'0 0.0
2017-Dec-08 17:30N 29°48' W 092°13'0 0.0
2017-Dec-08 17:00N 29°48' W 092°13'0 0.0
2017-Dec-08 16:30N 29°48' W 092°13'0 0.0
2017-Dec-08 16:00N 29°48' W 092°13'0 0.0
2017-Dec-08 15:30N 29°48' W 092°13'0 0.0
2017-Dec-08 15:00N 29°48' W 092°13'0 0.0
2017-Dec-08 14:30N 29°48' W 092°13'0 0.0
2017-Dec-08 14:00N 29°48' W 092°13'0 0.0
2017-Dec-08 13:30N 29°48' W 092°13'0 0.0
2017-Dec-08 13:00N 29°48' W 092°13'0 0.0
2017-Dec-08 12:30N 29°48' W 092°13'0 0.0
2017-Dec-08 12:00N 29°48' W 092°13'0 0.0
2017-Dec-08 11:30N 29°48' W 092°13'0 0.0
2017-Dec-08 11:00N 29°48' W 092°13'0 0.0
2017-Dec-08 10:30N 29°48' W 092°13'0 0.0
2017-Dec-08 10:00N 29°48' W 092°13'0 0.0
2017-Dec-08 09:30N 29°48' W 092°13'0 0.0
2017-Dec-08 09:00N 29°48' W 092°13'0 0.0
2017-Dec-08 08:30N 29°48' W 092°13'0 0.0
2017-Dec-08 08:00N 29°48' W 092°13'0 0.0
2017-Dec-08 07:30N 29°48' W 092°13'2 4.2
2017-Dec-08 07:00N 29°48' W 092°16'1 1.8
2017-Dec-08 06:30N 29°49' W 092°17'2 4.9
2017-Dec-08 06:00N 29°50' W 092°19'37 3.8
2017-Dec-07 20:10N 29°56' W 093°01'1 5.1
2017-Dec-07 20:00N 29°56' W 093°02'3 5.7
2017-Dec-07 19:30N 29°56' W 093°06'3 5.7
2017-Dec-07 19:00N 29°56' W 093°09'3 5.6
2017-Dec-07 18:30N 29°58' W 093°11'2 4.9
2017-Dec-07 18:00N 29°60' W 093°13'2 4.6
2017-Dec-07 17:30N 30°02' W 093°15'2 4.2
2017-Dec-07 17:00N 30°04' W 093°16'2 4.8
2017-Dec-07 16:30N 30°05' W 093°18'1 2.0
2017-Dec-07 16:00N 30°06' W 093°18'0 0.1
2017-Dec-07 15:30N 30°06' W 093°18'0 0.0
2017-Dec-07 15:00N 30°06' W 093°18'1 1.1
2017-Dec-07 14:30N 30°06' W 093°19'2 3.1
2017-Dec-07 14:00N 30°07' W 093°20'3 6.3
2017-Dec-07 13:30N 30°10' W 093°19'4 7.2
2017-Dec-07 13:00N 30°12' W 093°16'1 0.9
2017-Dec-07 12:28N 30°13' W 093°16'0 0.0
2017-Dec-07 11:51N 30°13' W 093°16'0 0.0
2017-Dec-07 10:46N 30°13' W 093°16'0 0.0
2017-Dec-07 10:30N 30°13' W 093°16'0 0.0
2017-Dec-07 10:00N 30°13' W 093°16'0 0.0
2017-Dec-07 09:30N 30°13' W 093°16'0 0.0
2017-Dec-07 09:00N 30°13' W 093°16'0 0.0
2017-Dec-07 08:30N 30°13' W 093°16'0 0.0
2017-Dec-07 08:00N 30°13' W 093°16'0 0.0
2017-Dec-07 07:30N 30°13' W 093°16'0 0.0
2017-Dec-07 06:57N 30°13' W 093°16'0 0.0
2017-Dec-07 06:30N 30°13' W 093°16'0 0.0
2017-Dec-07 06:00N 30°13' W 093°16'0 0.0
2017-Dec-07 05:30N 30°13' W 093°16'0 0.0
2017-Dec-07 05:00N 30°13' W 093°16'0 0.0
2017-Dec-07 04:30N 30°13' W 093°16'0 0.0
2017-Dec-07 04:00N 30°13' W 093°16'0 0.0
2017-Dec-07 03:29N 30°13' W 093°16'0 0.0
2017-Dec-07 03:00N 30°13' W 093°16'0 0.0
2017-Dec-07 02:30N 30°13' W 093°16'0 0.0
2017-Dec-07 02:00N 30°13' W 093°16'0 0.0
2017-Dec-06 23:10N 30°13' W 093°16'0 0.0
2017-Dec-06 23:00N 30°13' W 093°16'0 0.0
2017-Dec-06 22:30N 30°13' W 093°16'0 0.0
2017-Dec-06 22:00N 30°13' W 093°16'0 0.0
2017-Dec-06 21:30N 30°13' W 093°16'0 0.1
2017-Dec-06 21:00N 30°13' W 093°16'  
2017-Dec-04 10:30N 30°12' W 093°19'0 0.0
2017-Dec-04 10:00N 30°12' W 093°19'0 0.0
2017-Dec-04 09:30N 30°12' W 093°19'0 0.0
2017-Dec-04 09:00N 30°12' W 093°19'0 0.0
2017-Dec-04 08:30N 30°12' W 093°19'0 0.0
2017-Dec-04 08:00N 30°12' W 093°19'0 0.0
2017-Dec-04 07:30N 30°12' W 093°19'0 0.0
2017-Dec-04 07:00N 30°12' W 093°19'0 0.0
2017-Dec-04 06:30N 30°12' W 093°19'0 0.0
2017-Dec-04 06:00N 30°12' W 093°19'0 0.0
2017-Dec-04 05:30N 30°12' W 093°19'0 0.0
2017-Dec-04 05:00N 30°12' W 093°19'0 0.0
2017-Dec-04 04:30N 30°12' W 093°19'0 0.0
2017-Dec-04 04:00N 30°12' W 093°19'0 0.0
2017-Dec-04 03:30N 30°12' W 093°19'0 0.0
2017-Dec-04 03:00N 30°12' W 093°19'0 0.0
2017-Dec-04 02:30N 30°12' W 093°19'1 1.2
2017-Dec-04 02:00N 30°13' W 093°19'2 3.3
2017-Dec-04 01:30N 30°12' W 093°17'2 3.8
2017-Dec-04 00:59N 30°13' W 093°15'2 4.7
2017-Dec-04 00:30N 30°12' W 093°17'2 3.2
2017-Dec-03 23:59N 30°12' W 093°19'1 1.4
2017-Dec-03 23:27N 30°12' W 093°18'2 4.5
2017-Dec-03 22:56N 30°13' W 093°16'0 0.8
2017-Dec-03 22:30N 30°13' W 093°16'2 4.4
2017-Dec-03 22:00N 30°12' W 093°18'1 2.2
2017-Dec-03 21:30N 30°12' W 093°19'1 1.2
2017-Dec-03 21:00N 30°13' W 093°19'1 1.8
2017-Dec-03 20:30N 30°12' W 093°18'2 3.7
2017-Dec-03 20:00N 30°13' W 093°16'1 1.5
2017-Dec-03 19:30N 30°13' W 093°15'2 4.6
2017-Dec-03 19:00N 30°12' W 093°17'1 2.9
2017-Dec-03 18:30N 30°13' W 093°19'1 1.0
2017-Dec-03 18:00N 30°12' W 093°19'0 0.0
2017-Dec-03 17:30N 30°12' W 093°19'0 0.5
2017-Dec-03 17:00N 30°12' W 093°19'0 0.0
2017-Dec-03 16:30N 30°12' W 093°19'1 2.0
2017-Dec-03 16:00N 30°12' W 093°18'2 4.3
2017-Dec-03 15:30N 30°13' W 093°16'0 0.1
2017-Dec-03 08:41N 30°13' W 093°15'1 4.0
2017-Dec-03 08:30N 30°13' W 093°16'2 4.5
2017-Dec-03 08:00N 30°13' W 093°18'1 1.7
2017-Dec-03 07:30N 30°12' W 093°19'1 1.9
2017-Dec-03 06:50N 30°12' W 093°18'1 2.5
2017-Dec-03 06:30N 30°12' W 093°17'2 3.2
2017-Dec-03 05:55N 30°13' W 093°15'0 0.1
2017-Dec-03 05:30N 30°13' W 093°15'0 0.7
2017-Dec-03 04:55N 30°13' W 093°16'0 0.0
2017-Dec-03 04:17N 30°13' W 093°16'1 1.5
2017-Dec-03 03:55N 30°13' W 093°16'1 3.4
2017-Dec-03 03:30N 30°12' W 093°17'3 4.4
2017-Dec-03 02:55N 30°10' W 093°19'2 3.9
2017-Dec-03 02:26N 30°08' W 093°20'2 4.6
2017-Dec-03 02:00N 30°07' W 093°20'1 2.6
2017-Dec-03 01:30N 30°06' W 093°19'1 2.3
2017-Dec-03 01:00N 30°05' W 093°18'0 0.8
2017-Dec-03 00:30N 30°05' W 093°17'2 3.4
2017-Dec-03 00:00N 30°04' W 093°16'2 3.1
2017-Dec-02 23:30N 30°02' W 093°15'2 3.2
2017-Dec-02 23:00N 30°01' W 093°14'2 3.1
2017-Dec-02 22:30N 29°60' W 093°13'2 3.4
2017-Dec-02 22:00N 29°59' W 093°12'2 3.7
2017-Dec-02 21:30N 29°57' W 093°11'2 3.4
2017-Dec-02 20:57N 29°56' W 093°09'39 2.5
2017-Dec-02 05:23N 29°53' W 092°24'3 2.9
2017-Dec-02 04:26N 29°51' W 092°22'1 3.1
2017-Dec-02 04:00N 29°51' W 092°20'2 3.5
2017-Dec-02 03:30N 29°50' W 092°18'1 2.6
2017-Dec-02 03:00N 29°49' W 092°17'2 3.2
2017-Dec-02 02:30N 29°48' W 092°16'1 3.0
2017-Dec-02 02:00N 29°48' W 092°14'1 2.8
2017-Dec-02 01:30N 29°47' W 092°13'1 1.2
2017-Dec-02 01:00N 29°47' W 092°12'1 1.1
2017-Dec-02 00:30N 29°47' W 092°12'1 2.5
2017-Dec-02 00:00N 29°47' W 092°10'2 3.6
2017-Dec-01 23:30N 29°47' W 092°08'2 3.7
2017-Dec-01 23:00N 29°48' W 092°06'2 3.5
2017-Dec-01 22:30N 29°48' W 092°04'2 3.7
2017-Dec-01 22:00N 29°49' W 092°02'2 4.1
2017-Dec-01 21:30N 29°50' W 092°00'  

Dump ship's entire track history